createdAt,value
2017-06-08T00:01:47.268Z,63.10
2017-06-08T00:04:14.721Z,63.20
2017-06-08T00:06:42.176Z,62.80
2017-06-08T00:09:09.632Z,62.50
2017-06-08T00:11:37.106Z,62.20
2017-06-08T00:14:04.545Z,62.40
2017-06-08T00:16:32.117Z,62.00
2017-06-08T00:18:59.681Z,62.10
2017-06-08T00:21:27.241Z,62.60
2017-06-08T00:23:54.797Z,62.40
2017-06-08T00:26:22.289Z,62.50
2017-06-08T00:28:50.497Z,62.70
2017-06-08T00:31:17.953Z,62.60
2017-06-08T00:33:45.444Z,62.50
2017-06-08T00:36:12.881Z,62.50
2017-06-08T00:38:40.354Z,62.70
2017-06-08T00:41:07.801Z,63.00
2017-06-08T00:43:35.376Z,62.50
2017-06-08T00:46:02.930Z,62.60
2017-06-08T00:48:30.386Z,62.70
2017-06-08T00:50:57.841Z,62.30
2017-06-08T00:53:25.293Z,62.50
2017-06-08T00:55:52.769Z,62.70
2017-06-08T00:58:20.337Z,62.80
2017-06-08T01:00:47.789Z,62.90
2017-06-08T01:03:15.232Z,62.50
2017-06-08T01:05:42.684Z,62.80
2017-06-08T01:08:10.133Z,62.80
2017-06-08T01:10:37.605Z,63.00
2017-06-08T01:13:05.048Z,62.80
2017-06-08T01:15:32.512Z,62.40
2017-06-08T01:17:59.973Z,62.80
2017-06-08T01:20:27.437Z,62.80
2017-06-08T01:22:54.997Z,62.50
2017-06-08T01:25:22.453Z,62.50
2017-06-08T01:27:50.016Z,63.70
2017-06-08T01:30:17.480Z,62.80
2017-06-08T01:32:45.020Z,62.70
2017-06-08T01:35:12.481Z,62.80
2017-06-08T01:37:39.920Z,62.90
2017-06-08T01:40:07.380Z,62.70
2017-06-08T01:42:34.829Z,63.00
2017-06-08T01:45:02.322Z,63.20
2017-06-08T01:47:29.773Z,63.30
2017-06-08T01:49:57.221Z,63.40
2017-06-08T01:52:24.693Z,63.40
2017-06-08T01:54:52.140Z,63.00
2017-06-08T01:57:19.588Z,63.40
2017-06-08T01:59:47.054Z,63.30
2017-06-08T02:02:14.489Z,63.50
2017-06-08T02:04:42.060Z,63.40
2017-06-08T02:07:09.505Z,63.50
2017-06-08T02:09:36.956Z,63.50
2017-06-08T02:12:04.420Z,63.50
2017-06-08T02:14:31.897Z,64.20
2017-06-08T02:16:59.360Z,63.70
2017-06-08T02:19:26.805Z,63.50
2017-06-08T02:21:54.365Z,63.50
2017-06-08T02:24:21.817Z,63.60
2017-06-08T02:26:49.264Z,63.70
2017-06-08T02:29:16.836Z,63.90
2017-06-08T02:31:44.291Z,64.20
2017-06-08T02:34:11.749Z,64.20
2017-06-08T02:36:39.196Z,64.20
2017-06-08T02:39:06.656Z,64.30
2017-06-08T02:41:34.124Z,64.30
2017-06-08T02:44:01.690Z,64.40
2017-06-08T02:46:29.161Z,64.60
2017-06-08T02:48:57.416Z,65.80
2017-06-08T02:51:24.857Z,65.00
2017-06-08T02:53:52.429Z,64.90
2017-06-08T02:56:19.873Z,65.00
2017-06-08T02:58:47.345Z,65.30
2017-06-08T03:01:14.916Z,65.30
2017-06-08T03:03:42.474Z,65.60
2017-06-08T03:06:10.021Z,65.50
2017-06-08T03:08:37.461Z,65.90
2017-06-08T03:11:04.933Z,66.00
2017-06-08T03:13:32.384Z,66.20
2017-06-08T03:15:59.869Z,66.30
2017-06-08T03:18:27.329Z,66.30
2017-06-08T03:20:54.868Z,66.50
2017-06-08T03:23:22.429Z,66.90
2017-06-08T03:25:49.877Z,66.80
2017-06-08T03:28:17.448Z,66.60
2017-06-08T03:30:44.901Z,66.70
2017-06-08T03:33:12.377Z,66.70
2017-06-08T03:35:39.917Z,66.70
2017-06-08T03:38:07.356Z,66.50
2017-06-08T03:40:34.825Z,66.50
2017-06-08T03:43:02.289Z,66.40
2017-06-08T03:45:29.745Z,66.20
2017-06-08T03:47:57.193Z,65.90
2017-06-08T03:50:24.644Z,65.70
2017-06-08T03:52:52.941Z,65.60
2017-06-08T03:55:21.317Z,65.70
2017-06-08T03:57:48.767Z,66.00
2017-06-08T04:00:16.249Z,65.30
2017-06-08T04:02:44.466Z,65.70
2017-06-08T04:05:11.956Z,65.60
2017-06-08T04:07:39.425Z,65.10
2017-06-08T04:10:06.866Z,65.00
2017-06-08T04:12:34.327Z,65.40
2017-06-08T04:15:01.789Z,65.10
2017-06-08T04:17:29.344Z,64.60
2017-06-08T04:19:56.809Z,64.60
2017-06-08T04:22:24.272Z,64.00
2017-06-08T04:24:51.825Z,64.10
2017-06-08T04:27:19.289Z,63.70
2017-06-08T04:29:46.746Z,63.70
2017-06-08T04:32:14.201Z,63.70
2017-06-08T04:34:41.644Z,63.30
2017-06-08T04:37:09.092Z,63.10
2017-06-08T04:39:36.673Z,63.30
2017-06-08T04:42:04.117Z,63.40
2017-06-08T04:44:31.694Z,64.10
2017-06-08T04:46:59.137Z,63.00
2017-06-08T04:49:26.593Z,63.10
2017-06-08T04:51:54.037Z,63.20
2017-06-08T04:54:21.492Z,62.60
2017-06-08T04:56:48.947Z,61.50
2017-06-08T04:59:16.429Z,61.40
2017-06-08T05:01:43.992Z,61.40
2017-06-08T05:04:11.453Z,61.40
2017-06-08T05:06:39.201Z,60.80
2017-06-08T05:09:06.658Z,60.60
2017-06-08T05:11:34.113Z,60.50
2017-06-08T05:14:01.564Z,59.80
2017-06-08T05:16:29.005Z,59.20
2017-06-08T05:18:56.460Z,59.10
2017-06-08T05:21:23.944Z,58.40
2017-06-08T05:23:51.513Z,58.80
2017-06-08T05:26:18.952Z,58.70
2017-06-08T05:28:46.413Z,58.50
2017-06-08T05:31:13.885Z,58.10
2017-06-08T05:33:41.352Z,57.60
2017-06-08T05:36:08.805Z,57.40
2017-06-08T05:38:36.245Z,57.60
2017-06-08T05:41:03.804Z,56.30
2017-06-08T05:43:31.252Z,55.80
2017-06-08T05:45:58.711Z,55.80
2017-06-08T05:48:26.158Z,55.10
2017-06-08T05:50:53.616Z,54.90
2017-06-08T05:53:21.070Z,53.90
2017-06-08T05:55:48.536Z,52.90
2017-06-08T05:58:15.993Z,53.20
2017-06-08T06:00:43.464Z,52.90
2017-06-08T06:03:11.026Z,54.10
2017-06-08T06:05:38.468Z,52.70
2017-06-08T06:08:05.925Z,53.50
2017-06-08T06:10:33.373Z,54.10
2017-06-08T06:13:00.833Z,54.70
2017-06-08T06:15:28.290Z,54.50
2017-06-08T06:17:55.759Z,55.20
2017-06-08T06:20:23.205Z,55.30
2017-06-08T06:22:50.653Z,57.40
2017-06-08T06:25:18.109Z,57.10
2017-06-08T06:27:45.556Z,57.90
2017-06-08T06:30:13.024Z,57.40
2017-06-08T06:32:40.472Z,58.60
2017-06-08T06:35:07.929Z,59.60
2017-06-08T06:37:35.437Z,58.20
2017-06-08T06:40:02.888Z,58.90
2017-06-08T06:42:30.328Z,58.50
2017-06-08T06:44:57.789Z,57.30
2017-06-08T06:47:25.236Z,57.60
2017-06-08T06:49:52.698Z,55.80
2017-06-08T06:52:20.141Z,55.80
2017-06-08T06:54:47.613Z,56.90
2017-06-08T06:57:15.068Z,55.30
2017-06-08T06:59:42.521Z,55.00
2017-06-08T07:02:09.981Z,57.20
2017-06-08T07:04:37.437Z,56.90
2017-06-08T07:07:04.903Z,55.30
2017-06-08T07:09:32.342Z,54.50
2017-06-08T07:11:59.798Z,54.80
2017-06-08T07:14:27.269Z,55.00
2017-06-08T07:16:54.741Z,55.30
2017-06-08T07:19:22.301Z,56.80
2017-06-08T07:21:49.749Z,56.20
2017-06-08T07:24:17.217Z,56.70
2017-06-08T07:26:44.648Z,57.00
2017-06-08T07:29:12.105Z,57.70
2017-06-08T07:31:39.549Z,58.00
2017-06-08T07:34:07.041Z,56.30
2017-06-08T07:36:34.481Z,57.00
2017-06-08T07:39:01.947Z,57.10
2017-06-08T07:41:29.404Z,55.90
2017-06-08T07:43:56.865Z,56.60
2017-06-08T07:46:24.330Z,56.00
2017-06-08T07:48:51.769Z,55.90
2017-06-08T07:51:19.329Z,55.60
2017-06-08T07:53:46.785Z,55.70
2017-06-08T07:56:14.251Z,53.90
2017-06-08T07:58:41.702Z,53.90
2017-06-08T08:01:21.016Z,53.10
2017-06-08T08:03:48.461Z,54.00
2017-06-08T08:06:15.921Z,53.50
2017-06-08T08:08:43.368Z,52.60
2017-06-08T08:11:10.841Z,52.00
2017-06-08T08:13:38.289Z,52.40
2017-06-08T08:16:05.737Z,50.40
2017-06-08T08:18:33.202Z,50.20
2017-06-08T08:21:00.655Z,52.00
2017-06-08T08:23:28.119Z,53.00
2017-06-08T08:25:55.579Z,50.90
2017-06-08T08:28:23.051Z,50.10
2017-06-08T08:30:50.490Z,50.80
2017-06-08T08:33:17.953Z,50.20
2017-06-08T08:35:45.400Z,47.70
2017-06-08T08:38:12.874Z,47.00
2017-06-08T08:40:40.317Z,42.50
2017-06-08T08:43:07.767Z,42.90
2017-06-08T08:45:35.229Z,40.70
2017-06-08T08:48:02.673Z,42.00
2017-06-08T08:50:30.128Z,41.10
2017-06-08T08:52:57.576Z,41.10
2017-06-08T08:55:25.040Z,41.30
2017-06-08T08:57:52.485Z,39.60
2017-06-08T09:00:19.945Z,39.10
2017-06-08T09:02:47.388Z,38.80
2017-06-08T09:05:15.617Z,37.50
2017-06-08T09:07:43.065Z,37.40
2017-06-08T09:10:10.537Z,38.60
2017-06-08T09:12:37.985Z,37.60
2017-06-08T09:15:05.429Z,38.00
2017-06-08T09:17:32.888Z,38.40
2017-06-08T09:20:00.333Z,38.50
2017-06-08T09:22:27.801Z,38.70
2017-06-08T09:24:55.252Z,39.00
2017-06-08T09:27:22.713Z,38.70
2017-06-08T09:29:50.170Z,37.90
2017-06-08T09:32:17.629Z,39.00
2017-06-08T09:34:45.081Z,40.10
2017-06-08T09:37:12.549Z,39.80
2017-06-08T09:39:40.000Z,39.90
2017-06-08T09:42:07.457Z,40.60
2017-06-08T09:44:34.918Z,41.60
2017-06-08T09:47:02.370Z,41.30
2017-06-08T09:49:29.834Z,42.90
2017-06-08T09:51:57.285Z,42.20
2017-06-08T09:54:24.741Z,42.00
2017-06-08T09:56:52.185Z,43.10
2017-06-08T09:59:19.654Z,43.00
2017-06-08T10:01:47.119Z,43.20
2017-06-08T10:04:14.581Z,42.80
2017-06-08T10:06:42.033Z,43.00
2017-06-08T10:09:09.489Z,41.90
2017-06-08T10:11:36.950Z,42.20
2017-06-08T10:14:04.434Z,41.60
2017-06-08T10:16:31.861Z,41.80
2017-06-08T10:18:59.309Z,41.60
2017-06-08T10:21:26.768Z,41.60
2017-06-08T10:23:54.212Z,42.90
2017-06-08T10:26:21.676Z,42.20
2017-06-08T10:28:49.125Z,39.90
2017-06-08T10:31:16.594Z,39.40
2017-06-08T10:33:44.024Z,42.20
2017-06-08T10:36:11.464Z,40.80
2017-06-08T10:38:38.930Z,41.10
2017-06-08T10:41:07.141Z,42.70
2017-06-08T10:43:34.597Z,42.70
2017-06-08T10:46:02.052Z,41.40
2017-06-08T10:48:29.510Z,42.00
2017-06-08T10:50:56.954Z,41.80
2017-06-08T10:53:24.418Z,40.40
2017-06-08T10:55:51.857Z,40.50
2017-06-08T10:58:19.317Z,42.10
2017-06-08T11:00:46.764Z,40.50
2017-06-08T11:03:14.226Z,41.90
2017-06-08T11:05:41.677Z,42.40
2017-06-08T11:08:09.882Z,39.00
2017-06-08T11:10:37.346Z,39.00
2017-06-08T11:13:04.797Z,42.60
2017-06-08T11:15:32.253Z,43.20
2017-06-08T11:17:59.705Z,43.90
2017-06-08T11:20:27.169Z,43.50
2017-06-08T11:22:54.612Z,42.00
2017-06-08T11:25:22.068Z,43.10
2017-06-08T11:27:49.513Z,41.80
2017-06-08T11:30:16.981Z,42.80
2017-06-08T11:32:44.417Z,43.20
2017-06-08T11:35:12.652Z,41.40
2017-06-08T11:37:40.089Z,41.40
2017-06-08T11:40:07.545Z,40.80
2017-06-08T11:42:35.001Z,41.80
2017-06-08T11:45:02.457Z,40.20
2017-06-08T11:47:29.919Z,41.90
2017-06-08T11:49:57.373Z,41.30
2017-06-08T11:52:24.829Z,42.70
2017-06-08T11:54:52.280Z,43.80
2017-06-08T11:57:19.738Z,43.50
2017-06-08T11:59:47.194Z,41.20
2017-06-08T12:02:14.640Z,42.00
2017-06-08T12:04:42.096Z,41.60
2017-06-08T12:07:09.538Z,41.10
2017-06-08T12:09:36.994Z,40.50
2017-06-08T12:12:04.437Z,41.20
2017-06-08T12:14:32.665Z,39.10
2017-06-08T12:17:00.113Z,39.10
2017-06-08T12:19:27.584Z,38.80
2017-06-08T12:21:55.037Z,40.20
2017-06-08T12:24:22.480Z,40.90
2017-06-08T12:26:53.921Z,41.20
2017-06-08T12:29:21.368Z,39.30
2017-06-08T12:31:48.829Z,41.80
2017-06-08T12:34:16.282Z,40.20
2017-06-08T12:36:43.745Z,37.30
2017-06-08T12:39:11.192Z,38.10
2017-06-08T12:41:38.645Z,38.70
2017-06-08T12:44:06.101Z,39.80
2017-06-08T12:46:33.545Z,38.70
2017-06-08T12:49:01.778Z,38.80
2017-06-08T12:51:29.217Z,38.70
2017-06-08T12:53:56.677Z,38.70
2017-06-08T12:56:24.143Z,39.80
2017-06-08T12:58:51.598Z,40.20
2017-06-08T13:01:19.045Z,41.90
2017-06-08T13:03:46.501Z,43.00
2017-06-08T13:06:13.961Z,40.40
2017-06-08T13:08:41.410Z,38.60
2017-06-08T13:11:08.877Z,40.30
2017-06-08T13:13:36.317Z,40.50
2017-06-08T13:16:03.777Z,39.90
2017-06-08T13:18:31.225Z,39.80
2017-06-08T13:20:58.701Z,41.30
2017-06-08T13:23:26.149Z,39.90
2017-06-08T13:25:53.617Z,41.10
2017-06-08T13:28:21.077Z,44.60
2017-06-08T13:30:48.533Z,44.10
2017-06-08T13:33:15.990Z,42.50
2017-06-08T13:35:43.449Z,45.00
2017-06-08T13:38:10.906Z,44.10
2017-06-08T13:40:38.352Z,44.00
2017-06-08T13:43:05.815Z,44.00
2017-06-08T13:45:33.261Z,42.90
2017-06-08T13:48:00.722Z,40.70
2017-06-08T13:50:28.165Z,39.80
2017-06-08T13:52:55.621Z,40.00
2017-06-08T13:55:23.061Z,41.50
2017-06-08T13:57:51.286Z,42.80
2017-06-08T14:00:18.749Z,42.90
2017-06-08T14:02:46.185Z,42.80
2017-06-08T14:05:13.642Z,42.10
2017-06-08T14:07:41.085Z,43.50
2017-06-08T14:10:08.546Z,44.00
2017-06-08T14:12:35.992Z,44.00
2017-06-08T14:15:03.449Z,45.30
2017-06-08T14:17:30.901Z,42.60
2017-06-08T14:19:58.356Z,42.70
2017-06-08T14:22:25.805Z,43.10
2017-06-08T14:24:54.029Z,44.40
2017-06-08T14:27:21.476Z,44.30
2017-06-08T14:29:48.943Z,45.00
2017-06-08T14:32:16.385Z,45.90
2017-06-08T14:34:43.828Z,44.90
2017-06-08T14:37:11.289Z,45.10
2017-06-08T14:39:38.737Z,44.90
2017-06-08T14:42:06.204Z,45.50
2017-06-08T14:44:33.640Z,45.80
2017-06-08T14:47:01.097Z,47.60
2017-06-08T14:49:28.550Z,47.30
2017-06-08T14:51:56.777Z,45.30
2017-06-08T14:54:24.221Z,45.30
2017-06-08T14:56:51.689Z,47.10
2017-06-08T14:59:19.137Z,45.40
2017-06-08T15:01:46.622Z,45.60
2017-06-08T15:04:14.060Z,45.80
2017-06-08T15:06:41.505Z,44.50
2017-06-08T15:09:08.978Z,45.10
2017-06-08T15:11:36.417Z,45.80
2017-06-08T15:14:03.879Z,45.20
2017-06-08T15:16:31.343Z,46.20
2017-06-08T15:18:58.812Z,45.00
2017-06-08T15:21:26.261Z,44.90
2017-06-08T15:23:53.725Z,46.00
2017-06-08T15:26:21.168Z,46.90
2017-06-08T15:28:48.624Z,44.90
2017-06-08T15:31:16.072Z,47.60
2017-06-08T15:33:43.525Z,46.90
2017-06-08T15:36:10.985Z,46.30
2017-06-08T15:38:38.441Z,45.40
2017-06-08T15:41:05.897Z,45.50
2017-06-08T15:43:33.348Z,46.80
2017-06-08T15:46:00.810Z,46.20
2017-06-08T15:48:28.273Z,46.80
2017-06-08T15:50:55.729Z,46.20
2017-06-08T15:53:23.181Z,45.70
2017-06-08T15:55:50.637Z,44.60
2017-06-08T15:58:18.089Z,44.70
2017-06-08T16:00:45.553Z,46.10
2017-06-08T16:03:12.997Z,45.10
2017-06-08T16:05:40.465Z,42.90
2017-06-08T16:08:07.913Z,42.70
2017-06-08T16:10:35.381Z,42.50
2017-06-08T16:13:02.838Z,43.50
2017-06-08T16:15:30.284Z,44.80
2017-06-08T16:17:57.744Z,42.70
2017-06-08T16:20:25.188Z,43.90
2017-06-08T16:22:52.644Z,44.40
2017-06-08T16:25:20.094Z,43.30
2017-06-08T16:27:47.553Z,44.10
2017-06-08T16:30:15.003Z,45.40
2017-06-08T16:32:43.232Z,45.80
2017-06-08T16:35:10.682Z,45.80
2017-06-08T16:37:38.140Z,45.00
2017-06-08T16:40:05.585Z,45.10
2017-06-08T16:42:33.036Z,46.30
2017-06-08T16:45:00.496Z,45.90
2017-06-08T16:47:27.953Z,46.90
2017-06-08T16:49:55.415Z,46.70
2017-06-08T16:52:22.869Z,46.30
2017-06-08T16:54:50.325Z,47.10
2017-06-08T16:57:17.781Z,46.40
2017-06-08T16:59:45.237Z,47.70
2017-06-08T17:02:12.687Z,46.90
2017-06-08T17:04:40.153Z,46.20
2017-06-08T17:07:07.711Z,45.90
2017-06-08T17:09:35.193Z,45.90
2017-06-08T17:12:02.636Z,47.00
2017-06-08T17:14:30.081Z,48.10
2017-06-08T17:16:57.549Z,47.90
2017-06-08T17:19:24.992Z,46.50
2017-06-08T17:21:52.459Z,45.40
2017-06-08T17:24:19.909Z,47.00
2017-06-08T17:26:47.369Z,45.90
2017-06-08T17:29:14.825Z,46.10
2017-06-08T17:31:42.281Z,47.00
2017-06-08T17:34:09.737Z,46.80
2017-06-08T17:36:37.222Z,46.00
2017-06-08T17:39:04.674Z,46.10
2017-06-08T17:41:32.137Z,46.10
2017-06-08T17:43:59.589Z,46.80
2017-06-08T17:46:27.032Z,45.30
2017-06-08T17:48:54.497Z,48.30
2017-06-08T17:51:21.957Z,46.30
2017-06-08T17:53:49.429Z,48.00
2017-06-08T17:56:16.881Z,47.50
2017-06-08T17:58:44.349Z,48.80
2017-06-08T18:01:11.793Z,46.70
2017-06-08T18:03:39.258Z,46.10
2017-06-08T18:06:06.709Z,47.80
2017-06-08T18:08:34.168Z,46.30
2017-06-08T18:11:01.613Z,45.40
2017-06-08T18:13:29.071Z,45.70
2017-06-08T18:15:56.521Z,45.30
2017-06-08T18:18:23.969Z,45.90
2017-06-08T18:20:51.428Z,44.40
2017-06-08T18:23:18.874Z,44.90
2017-06-08T18:25:46.345Z,45.50
2017-06-08T18:28:13.804Z,47.50
2017-06-08T18:30:41.262Z,46.50
2017-06-08T18:33:08.709Z,48.00
2017-06-08T18:35:36.165Z,47.10
2017-06-08T18:38:03.622Z,47.10
2017-06-08T18:40:31.091Z,47.20
2017-06-08T18:42:58.542Z,47.70
2017-06-08T18:45:25.987Z,44.70
2017-06-08T18:47:53.443Z,43.70
2017-06-08T18:50:20.901Z,44.50
2017-06-08T18:52:48.362Z,43.70
2017-06-08T18:55:15.813Z,46.60
2017-06-08T18:57:43.280Z,45.20
2017-06-08T19:00:10.734Z,45.50
2017-06-08T19:02:38.189Z,47.30
2017-06-08T19:05:05.641Z,45.40
2017-06-08T19:07:33.098Z,45.10
2017-06-08T19:10:00.557Z,46.90
2017-06-08T19:12:28.003Z,47.90
2017-06-08T19:14:55.469Z,48.80
2017-06-08T19:17:22.913Z,49.50
2017-06-08T19:19:50.373Z,49.40
2017-06-08T19:22:17.830Z,46.40
2017-06-08T19:24:45.297Z,47.30
2017-06-08T19:27:12.757Z,49.40
2017-06-08T19:29:40.221Z,49.70
2017-06-08T19:32:07.670Z,45.30
2017-06-08T19:34:35.129Z,44.90
2017-06-08T19:37:02.582Z,46.30
2017-06-08T19:39:30.043Z,48.00
2017-06-08T19:41:57.498Z,47.90
2017-06-08T19:44:24.947Z,48.90
2017-06-08T19:46:52.415Z,47.50
2017-06-08T19:49:19.857Z,47.90
2017-06-08T19:51:47.318Z,47.80
2017-06-08T19:54:14.770Z,48.60
2017-06-08T19:56:42.241Z,50.10
2017-06-08T19:59:09.689Z,48.40
2017-06-08T20:01:37.154Z,47.50
2017-06-08T20:04:04.597Z,47.70
2017-06-08T20:06:32.066Z,47.50
2017-06-08T20:08:59.512Z,48.20
2017-06-08T20:11:26.974Z,48.30
2017-06-08T20:13:54.424Z,49.70
2017-06-08T20:16:21.888Z,48.50
2017-06-08T20:18:49.325Z,48.30
2017-06-08T20:21:16.770Z,47.20
2017-06-08T20:23:44.993Z,46.90
2017-06-08T20:26:12.437Z,46.80
2017-06-08T20:28:39.909Z,46.10
2017-06-08T20:31:07.357Z,46.60
2017-06-08T20:33:34.815Z,46.30
2017-06-08T20:36:02.265Z,45.30
2017-06-08T20:38:29.721Z,48.70
2017-06-08T20:40:57.169Z,48.10
2017-06-08T20:43:24.642Z,49.10
2017-06-08T20:45:52.094Z,48.10
2017-06-08T20:48:19.553Z,50.90
2017-06-08T20:50:47.010Z,51.40
2017-06-08T20:53:14.463Z,50.80
2017-06-08T20:55:41.921Z,51.80
2017-06-08T20:58:09.373Z,54.40
2017-06-08T21:00:36.841Z,56.40
2017-06-08T21:03:04.297Z,57.80
2017-06-08T21:05:31.758Z,61.00
2017-06-08T21:07:59.205Z,62.60
2017-06-08T21:10:26.665Z,61.00
2017-06-08T21:12:54.105Z,65.50
2017-06-08T21:15:21.565Z,66.60
2017-06-08T21:17:49.019Z,65.90
2017-06-08T21:20:16.476Z,66.80
2017-06-08T21:22:43.920Z,67.20
2017-06-08T21:25:11.377Z,67.30
2017-06-08T21:27:38.825Z,67.00
2017-06-08T21:30:06.284Z,67.50
2017-06-08T21:32:34.513Z,67.70
2017-06-08T21:35:01.980Z,67.50
2017-06-08T21:37:29.433Z,67.30
2017-06-08T21:39:56.877Z,67.70
2017-06-08T21:42:24.346Z,67.40
2017-06-08T21:44:51.798Z,67.90
2017-06-08T21:47:19.252Z,67.90
2017-06-08T21:49:46.705Z,66.80
2017-06-08T21:52:14.174Z,67.50
2017-06-08T21:54:41.617Z,68.70
2017-06-08T21:57:09.078Z,68.00
2017-06-08T21:59:36.525Z,67.10
2017-06-08T22:02:03.980Z,65.40
2017-06-08T22:04:31.449Z,67.20
2017-06-08T22:06:58.901Z,66.60
2017-06-08T22:15:24.501Z,69.30
2017-06-08T22:17:52.717Z,69.10
2017-06-08T22:20:20.173Z,68.90
2017-06-08T22:22:47.617Z,70.20
2017-06-08T22:25:15.080Z,71.10
2017-06-08T22:27:42.532Z,71.20
2017-06-08T22:30:09.988Z,70.80
2017-06-08T22:32:37.437Z,71.90
2017-06-08T22:35:04.897Z,71.40
2017-06-08T22:37:32.354Z,71.50
2017-06-08T22:39:59.797Z,71.50
2017-06-08T22:42:27.266Z,72.40
2017-06-08T22:44:54.705Z,72.50
2017-06-08T22:47:22.946Z,73.50
2017-06-08T22:49:50.393Z,73.40
2017-06-08T22:52:17.844Z,74.10
2017-06-08T22:54:45.288Z,74.80
2017-06-08T22:57:12.757Z,76.30
2017-06-08T22:59:40.207Z,77.70
2017-06-08T23:02:07.671Z,78.30
2017-06-08T23:04:35.117Z,78.50
2017-06-08T23:07:02.566Z,78.50
2017-06-08T23:15:16.428Z,80.30
2017-06-08T23:17:43.909Z,80.50
2017-06-08T23:20:11.359Z,80.20
2017-06-08T23:22:38.801Z,81.10
2017-06-08T23:25:06.262Z,80.40
2017-06-08T23:27:33.704Z,80.50
2017-06-08T23:30:01.165Z,80.40
2017-06-08T23:32:28.617Z,80.60
2017-06-08T23:34:56.842Z,79.90
2017-06-08T23:37:24.291Z,79.80
2017-06-08T23:39:51.763Z,79.30
2017-06-08T23:42:19.232Z,78.70
2017-06-08T23:44:46.684Z,78.10
2017-06-08T23:47:14.129Z,77.70
2017-06-08T23:49:41.602Z,78.00
2017-06-08T23:52:09.046Z,77.80
2017-06-08T23:54:36.506Z,78.10
2017-06-08T23:57:03.969Z,77.30
2017-06-08T23:59:31.405Z,76.40
